createdAt,value
2019-05-01T00:00:25.831Z,10.60
2019-05-01T00:01:25.799Z,10.60
2019-05-01T00:02:25.719Z,10.56
2019-05-01T00:03:25.710Z,10.53
2019-05-01T00:04:25.702Z,10.52
2019-05-01T00:05:25.752Z,10.51
2019-05-01T00:06:25.669Z,10.48
2019-05-01T00:07:25.660Z,10.45
2019-05-01T00:08:25.639Z,10.45
2019-05-01T00:09:25.639Z,10.42
2019-05-01T00:10:25.632Z,10.44
2019-05-01T00:11:25.651Z,10.42
2019-05-01T00:12:25.632Z,10.41
2019-05-01T00:13:25.589Z,10.38
2019-05-01T00:14:25.579Z,10.36
2019-05-01T00:15:25.582Z,10.32
2019-05-01T00:16:25.562Z,10.30
2019-05-01T00:17:27.784Z,10.26
2019-05-01T00:18:25.545Z,10.25
2019-05-01T00:19:25.542Z,10.23
2019-05-01T00:20:25.557Z,10.23
2019-05-01T00:21:25.512Z,10.26
2019-05-01T00:22:25.510Z,10.26
2019-05-01T00:23:25.495Z,10.27
2019-05-01T00:24:25.483Z,10.26
2019-05-01T00:25:25.473Z,10.27
2019-05-01T00:26:25.453Z,10.26
2019-05-01T00:27:25.475Z,10.23
2019-05-01T00:28:25.431Z,10.22
2019-05-01T00:29:25.433Z,10.18
2019-05-01T00:30:29.960Z,10.17
2019-05-01T00:31:26.390Z,10.15
2019-05-01T00:32:25.391Z,10.12
2019-05-01T00:33:25.480Z,10.09
2019-05-01T00:34:25.360Z,10.07
2019-05-01T00:35:25.361Z,10.05
2019-05-01T00:36:25.343Z,10.02
2019-05-01T00:37:25.345Z,9.99
2019-05-01T00:38:25.330Z,9.96
2019-05-01T00:39:25.401Z,9.93
2019-05-01T00:40:25.312Z,9.91
2019-05-01T00:41:25.293Z,9.90
2019-05-01T00:42:25.277Z,9.89
2019-05-01T00:43:25.261Z,9.90
2019-05-01T00:44:25.353Z,9.87
2019-05-01T00:45:25.245Z,9.86
2019-05-01T00:46:25.221Z,9.86
2019-05-01T00:47:25.222Z,9.83
2019-05-01T00:48:25.210Z,9.83
2019-05-01T00:49:25.351Z,9.83
2019-05-01T00:50:25.202Z,9.81
2019-05-01T00:51:25.182Z,9.81
2019-05-01T00:52:25.173Z,9.81
2019-05-01T00:53:25.165Z,9.83
2019-05-01T00:54:25.141Z,9.81
2019-05-01T00:55:25.230Z,9.81
2019-05-01T00:56:25.119Z,9.78
2019-05-01T00:57:25.123Z,9.76
2019-05-01T00:58:25.103Z,9.76
2019-05-01T00:59:25.081Z,9.75
2019-05-01T01:00:25.193Z,9.75
2019-05-01T01:01:25.061Z,9.74
2019-05-01T01:02:25.073Z,9.74
2019-05-01T01:03:25.042Z,9.72
2019-05-01T01:04:25.054Z,9.74
2019-05-01T01:05:25.033Z,9.75
2019-05-01T01:06:25.049Z,9.78
2019-05-01T01:07:25.004Z,9.78
2019-05-01T01:08:24.991Z,9.78
2019-05-01T01:09:24.980Z,9.76
2019-05-01T01:10:24.962Z,9.78
2019-05-01T01:11:25.005Z,9.76
2019-05-01T01:12:24.953Z,9.75
2019-05-01T01:13:24.931Z,9.74
2019-05-01T01:14:24.952Z,9.72
2019-05-01T01:15:24.924Z,9.71
2019-05-01T01:16:24.900Z,9.69
2019-05-01T01:17:24.946Z,9.68
2019-05-01T01:18:24.881Z,9.71
2019-05-01T01:19:24.861Z,9.71
2019-05-01T01:20:24.872Z,9.71
2019-05-01T01:21:24.841Z,9.71
2019-05-01T01:22:24.844Z,9.72
2019-05-01T01:23:24.894Z,9.71
2019-05-01T01:24:24.812Z,9.69
2019-05-01T01:25:24.814Z,9.69
2019-05-01T01:26:24.791Z,9.68
2019-05-01T01:27:24.794Z,9.68
2019-05-01T01:28:24.772Z,9.68
2019-05-01T01:29:24.772Z,9.66
2019-05-01T01:30:24.767Z,9.65
2019-05-01T01:31:24.765Z,9.65
2019-05-01T01:32:24.733Z,9.64
2019-05-01T01:33:24.711Z,9.65
2019-05-01T01:34:24.714Z,9.65
2019-05-01T01:35:24.695Z,9.65
2019-05-01T01:36:24.722Z,9.66
2019-05-01T01:37:24.681Z,9.66
2019-05-01T01:38:24.664Z,9.68
2019-05-01T01:39:24.652Z,9.68
2019-05-01T01:40:24.642Z,9.69
2019-05-01T01:41:24.622Z,9.71
2019-05-01T01:42:32.362Z,9.71
2019-05-01T01:43:24.612Z,9.71
2019-05-01T01:44:24.605Z,9.71
2019-05-01T01:45:24.594Z,9.71
2019-05-01T01:46:24.584Z,9.71
2019-05-01T01:47:24.584Z,9.72
2019-05-01T01:48:24.644Z,9.71
2019-05-01T01:49:24.542Z,9.71
2019-05-01T01:50:24.532Z,9.69
2019-05-01T01:51:24.512Z,9.66
2019-05-01T01:52:24.503Z,9.65
2019-05-01T01:53:24.593Z,9.65
2019-05-01T01:54:24.504Z,9.65
2019-05-01T01:55:24.473Z,9.65
2019-05-01T01:56:24.462Z,9.65
2019-05-01T01:57:24.452Z,9.65
2019-05-01T01:58:24.534Z,9.66
2019-05-01T01:59:24.474Z,9.66
2019-05-01T02:00:24.439Z,9.66
2019-05-01T02:01:24.412Z,9.66
2019-05-01T02:02:24.404Z,9.65
2019-05-01T02:03:24.401Z,9.64
2019-05-01T02:04:24.456Z,9.65
2019-05-01T02:05:24.374Z,9.65
2019-05-01T02:06:24.366Z,9.64
2019-05-01T02:07:24.343Z,9.65
2019-05-01T02:08:24.333Z,9.65
2019-05-01T02:09:24.325Z,9.64
2019-05-01T02:10:24.424Z,9.65
2019-05-01T02:11:24.303Z,9.65
2019-05-01T02:12:24.291Z,9.65
2019-05-01T02:13:24.361Z,9.65
2019-05-01T02:14:24.275Z,9.64
2019-05-01T02:15:24.265Z,9.60
2019-05-01T02:16:24.292Z,9.57
2019-05-01T02:17:24.236Z,9.53
2019-05-01T02:18:24.245Z,9.50
2019-05-01T02:19:24.226Z,9.48
2019-05-01T02:20:24.192Z,9.51
2019-05-01T02:21:24.195Z,9.51
2019-05-01T02:22:24.183Z,9.48
2019-05-01T02:23:24.204Z,9.48
2019-05-01T02:24:24.153Z,9.47
2019-05-01T02:25:24.199Z,9.47
2019-05-01T02:26:24.143Z,9.43
2019-05-01T02:27:24.127Z,9.40
2019-05-01T02:28:24.126Z,9.38
2019-05-01T02:29:24.198Z,9.36
2019-05-01T02:30:24.096Z,9.35
2019-05-01T02:31:29.262Z,9.33
2019-05-01T02:32:25.075Z,9.31
2019-05-01T02:33:24.077Z,9.24
2019-05-01T02:34:24.142Z,9.23
2019-05-01T02:35:24.046Z,9.20
2019-05-01T02:36:24.067Z,9.15
2019-05-01T02:37:24.026Z,9.14
2019-05-01T02:38:24.021Z,9.10
2019-05-01T02:39:24.067Z,9.08
2019-05-01T02:40:23.984Z,9.05
2019-05-01T02:41:23.976Z,9.08
2019-05-01T02:42:23.967Z,9.04
2019-05-01T02:43:23.957Z,9.02
2019-05-01T02:44:23.984Z,9.01
2019-05-01T02:45:23.935Z,9.01
2019-05-01T02:46:23.924Z,8.99
2019-05-01T02:47:23.903Z,8.96
2019-05-01T02:48:23.894Z,8.95
2019-05-01T02:49:23.896Z,8.94
2019-05-01T02:50:23.886Z,8.91
2019-05-01T02:51:23.861Z,8.89
2019-05-01T02:52:23.947Z,8.87
2019-05-01T02:53:23.833Z,8.86
2019-05-01T02:54:23.827Z,8.86
2019-05-01T02:55:23.925Z,8.83
2019-05-01T02:56:23.830Z,8.81
2019-05-01T02:57:23.801Z,8.81
2019-05-01T02:58:23.817Z,8.81
2019-05-01T02:59:23.781Z,8.79
2019-05-01T03:00:23.859Z,8.77
2019-05-01T03:01:23.767Z,8.74
2019-05-01T03:02:23.748Z,8.74
2019-05-01T03:03:23.735Z,8.73
2019-05-01T03:04:23.737Z,8.70
2019-05-01T03:05:23.718Z,8.68
2019-05-01T03:06:23.796Z,8.68
2019-05-01T03:07:23.683Z,8.66
2019-05-01T03:08:23.691Z,8.65
2019-05-01T03:09:23.694Z,8.65
2019-05-01T03:10:23.736Z,8.62
2019-05-01T03:11:23.656Z,8.59
2019-05-01T03:12:23.647Z,8.56
2019-05-01T03:13:23.614Z,8.55
2019-05-01T03:14:23.617Z,8.52
2019-05-01T03:15:23.607Z,8.50
2019-05-01T03:16:23.683Z,8.50
2019-05-01T03:17:23.596Z,8.48
2019-05-01T03:18:23.578Z,8.48
2019-05-01T03:19:23.578Z,8.47
2019-05-01T03:20:23.555Z,8.47
2019-05-01T03:21:23.555Z,8.47
2019-05-01T03:22:23.615Z,8.45
2019-05-01T03:23:23.530Z,8.45
2019-05-01T03:24:23.517Z,8.44
2019-05-01T03:25:23.495Z,8.43
2019-05-01T03:26:23.484Z,8.40
2019-05-01T03:27:23.568Z,8.37
2019-05-01T03:28:23.468Z,8.36
2019-05-01T03:29:23.456Z,8.33
2019-05-01T03:30:23.435Z,8.30
2019-05-01T03:31:23.437Z,8.28
2019-05-01T03:32:23.506Z,8.29
2019-05-01T03:33:23.414Z,8.30
2019-05-01T03:34:23.395Z,8.29
2019-05-01T03:35:23.403Z,8.28
2019-05-01T03:36:23.376Z,8.26
2019-05-01T03:37:23.386Z,8.25
2019-05-01T03:38:23.377Z,8.25
2019-05-01T03:39:23.337Z,8.23
2019-05-01T03:40:23.338Z,8.20
2019-05-01T03:41:23.320Z,8.19
2019-05-01T03:42:23.315Z,8.16
2019-05-01T03:43:23.318Z,8.16
2019-05-01T03:44:23.291Z,8.12
2019-05-01T03:45:23.286Z,8.11
2019-05-01T03:46:23.283Z,8.10
2019-05-01T03:47:23.256Z,8.08
2019-05-01T03:48:23.324Z,8.05
2019-05-01T03:49:23.224Z,8.04
2019-05-01T03:50:23.224Z,8.01
2019-05-01T03:51:23.218Z,7.98
2019-05-01T03:52:23.195Z,7.98
2019-05-01T03:53:23.204Z,7.93
2019-05-01T03:54:23.188Z,7.92
2019-05-01T03:55:23.188Z,7.90
2019-05-01T03:56:23.177Z,7.92
2019-05-01T03:57:23.145Z,7.93
2019-05-01T03:58:23.135Z,7.97
2019-05-01T03:59:23.216Z,7.98
2019-05-01T04:00:23.120Z,8.02
2019-05-01T04:01:23.104Z,8.05
2019-05-01T04:02:33.122Z,8.07
2019-05-01T04:03:24.089Z,8.07
2019-05-01T04:04:23.157Z,8.10
2019-05-01T04:05:23.068Z,8.15
2019-05-01T04:06:23.063Z,8.15
2019-05-01T04:07:23.037Z,8.18
2019-05-01T04:08:23.067Z,8.19
2019-05-01T04:09:23.119Z,8.20
2019-05-01T04:10:23.008Z,8.22
2019-05-01T04:11:22.997Z,8.25
2019-05-01T04:12:22.982Z,8.28
2019-05-01T04:13:22.988Z,8.29
2019-05-01T04:14:22.984Z,8.33
2019-05-01T04:15:23.014Z,8.33
2019-05-01T04:16:22.935Z,8.34
2019-05-01T04:17:23.016Z,8.34
2019-05-01T04:18:22.944Z,8.38
2019-05-01T04:19:22.903Z,8.40
2019-05-01T04:20:22.930Z,8.43
2019-05-01T04:21:22.897Z,8.45
2019-05-01T04:22:22.864Z,8.45
2019-05-01T04:23:22.895Z,8.47
2019-05-01T04:24:22.855Z,8.48
2019-05-01T04:25:22.941Z,8.50
2019-05-01T04:26:22.845Z,8.50
2019-05-01T04:27:22.815Z,8.50
2019-05-01T04:28:22.818Z,8.50
2019-05-01T04:29:22.810Z,8.50
2019-05-01T04:30:22.867Z,8.52
2019-05-01T04:31:22.777Z,8.50
2019-05-01T04:32:22.766Z,8.53
2019-05-01T04:33:22.758Z,8.55
2019-05-01T04:34:22.753Z,8.55
2019-05-01T04:35:22.738Z,8.58
2019-05-01T04:36:22.804Z,8.59
2019-05-01T04:37:22.706Z,8.58
2019-05-01T04:38:22.717Z,8.59
2019-05-01T04:39:22.694Z,8.61
2019-05-01T04:40:22.674Z,8.62
2019-05-01T04:41:22.678Z,8.63
2019-05-01T04:42:22.667Z,8.63
2019-05-01T04:43:22.647Z,8.65
2019-05-01T04:44:22.657Z,8.65
2019-05-01T04:45:22.647Z,8.66
2019-05-01T04:46:22.705Z,8.68
2019-05-01T04:47:22.596Z,8.66
2019-05-01T04:48:22.597Z,8.65
2019-05-01T04:49:22.576Z,8.65
2019-05-01T04:50:22.556Z,8.65
2019-05-01T04:51:22.565Z,8.65
2019-05-01T04:52:22.536Z,8.65
2019-05-01T04:53:22.537Z,8.66
2019-05-01T04:54:22.526Z,8.63
2019-05-01T04:55:23.681Z,8.61
2019-05-01T04:56:22.567Z,8.61
2019-05-01T04:57:22.487Z,8.61
2019-05-01T04:58:22.567Z,8.61
2019-05-01T04:59:22.465Z,8.63
2019-05-01T05:00:22.456Z,8.65
2019-05-01T05:01:22.445Z,8.63
2019-05-01T05:02:22.513Z,8.62
2019-05-01T05:03:22.426Z,8.63
2019-05-01T05:04:22.413Z,8.65
2019-05-01T05:05:22.422Z,8.65
2019-05-01T05:06:22.396Z,8.68
2019-05-01T05:07:22.374Z,8.71
2019-05-01T05:08:22.456Z,8.73
2019-05-01T05:09:22.365Z,8.74
2019-05-01T05:10:22.348Z,8.76
2019-05-01T05:11:22.346Z,8.79
2019-05-01T05:12:22.415Z,8.79
2019-05-01T05:13:22.317Z,8.81
2019-05-01T05:14:22.308Z,8.84
2019-05-01T05:15:22.297Z,8.86
2019-05-01T05:16:22.279Z,8.86
2019-05-01T05:17:22.307Z,8.86
2019-05-01T05:18:22.347Z,8.87
2019-05-01T05:19:22.336Z,8.89
2019-05-01T05:20:22.246Z,8.89
2019-05-01T05:21:22.228Z,8.92
2019-05-01T05:22:22.222Z,8.87
2019-05-01T05:23:22.295Z,8.89
2019-05-01T05:24:22.257Z,8.92
2019-05-01T05:25:22.185Z,8.94
2019-05-01T05:26:22.187Z,8.96
2019-05-01T05:27:22.180Z,8.96
2019-05-01T05:28:22.238Z,8.98
2019-05-01T05:29:22.147Z,8.99
2019-05-01T05:30:22.137Z,9.01
2019-05-01T05:31:22.117Z,9.01
2019-05-01T05:32:22.107Z,9.01
2019-05-01T05:33:22.195Z,9.02
2019-05-01T05:34:22.097Z,9.02
2019-05-01T05:35:22.076Z,9.04
2019-05-01T05:36:22.078Z,9.04
2019-05-01T05:37:22.038Z,9.04
2019-05-01T05:38:22.123Z,9.04
2019-05-01T05:39:22.118Z,9.02
2019-05-01T05:40:22.028Z,9.01
2019-05-01T05:41:22.018Z,8.98
2019-05-01T05:42:22.007Z,8.98
2019-05-01T05:43:21.978Z,8.96
2019-05-01T05:44:21.988Z,8.95
2019-05-01T05:45:21.993Z,8.96
2019-05-01T05:46:21.968Z,8.98
2019-05-01T05:47:21.938Z,8.96
2019-05-01T05:48:21.939Z,8.98
2019-05-01T05:49:21.986Z,8.98
2019-05-01T05:50:21.919Z,8.99
2019-05-01T05:51:21.896Z,9.01
2019-05-01T05:52:21.888Z,9.02
2019-05-01T05:53:21.888Z,9.04
2019-05-01T05:54:21.878Z,9.02
2019-05-01T05:55:21.939Z,9.02
2019-05-01T05:56:21.846Z,8.99
2019-05-01T05:57:21.839Z,8.99
2019-05-01T05:58:21.828Z,8.99
2019-05-01T05:59:21.808Z,8.98
2019-05-01T06:00:21.886Z,8.98
2019-05-01T06:01:21.797Z,8.96
2019-05-01T06:02:21.779Z,8.94
2019-05-01T06:03:31.016Z,8.94
2019-05-01T06:04:22.759Z,8.96
2019-05-01T06:05:21.819Z,8.96
2019-05-01T06:06:21.809Z,8.95
2019-05-01T06:07:21.729Z,8.94
2019-05-01T06:08:21.719Z,8.95
2019-05-01T06:09:21.709Z,8.96
2019-05-01T06:10:23.237Z,8.96
2019-05-01T06:11:21.689Z,8.98
2019-05-01T06:12:21.681Z,9.01
2019-05-01T06:13:22.982Z,9.04
2019-05-01T06:14:21.681Z,9.04
2019-05-01T06:15:21.716Z,9.10
2019-05-01T06:16:21.712Z,9.11
2019-05-01T06:17:23.696Z,9.13
2019-05-01T06:18:22.599Z,9.14
2019-05-01T06:19:21.607Z,9.15
2019-05-01T06:20:25.862Z,9.17
2019-05-01T06:21:22.590Z,9.21
2019-05-01T06:22:21.557Z,9.23
2019-05-01T06:23:22.535Z,9.24
2019-05-01T06:24:21.547Z,9.28
2019-05-01T06:25:24.387Z,9.31
2019-05-01T06:26:21.590Z,9.33
2019-05-01T06:27:21.508Z,9.38
2019-05-01T06:28:24.799Z,9.38
2019-05-01T06:29:21.487Z,9.42
2019-05-01T06:30:21.488Z,9.46
2019-05-01T06:31:23.136Z,9.47
2019-05-01T06:32:21.541Z,9.46
2019-05-01T06:33:21.446Z,9.46
2019-05-01T06:34:23.812Z,9.47
2019-05-01T06:35:22.417Z,9.48
2019-05-01T06:36:23.852Z,9.48
2019-05-01T06:37:25.301Z,9.50
2019-05-01T06:38:22.397Z,9.50
2019-05-01T06:39:21.380Z,9.51
2019-05-01T06:40:22.546Z,9.53
2019-05-01T06:41:21.348Z,9.56
2019-05-01T06:42:21.359Z,9.58
2019-05-01T06:43:25.353Z,9.58
2019-05-01T06:44:22.408Z,9.60
2019-05-01T06:45:21.319Z,9.61
2019-05-01T06:46:22.114Z,9.64
2019-05-01T06:47:22.278Z,9.65
2019-05-01T06:48:21.300Z,9.65
2019-05-01T06:49:24.378Z,9.65
2019-05-01T06:50:22.252Z,9.60
2019-05-01T06:51:21.249Z,9.58
2019-05-01T06:52:25.006Z,9.51
2019-05-01T06:53:22.300Z,9.43
2019-05-01T06:54:21.307Z,9.40
2019-05-01T06:55:22.602Z,9.42
2019-05-01T06:56:22.191Z,9.43
2019-05-01T06:57:21.179Z,9.48
2019-05-01T06:58:21.879Z,9.53
2019-05-01T06:59:21.148Z,9.58
2019-05-01T07:00:21.242Z,9.64
2019-05-01T07:01:23.912Z,9.66
2019-05-01T07:02:21.121Z,9.74
2019-05-01T07:03:21.121Z,9.78
2019-05-01T07:04:21.194Z,9.81
2019-05-01T07:05:21.091Z,9.89
2019-05-01T07:06:21.085Z,9.97
2019-05-01T07:07:25.449Z,10.04
2019-05-01T07:08:24.801Z,10.09
2019-05-01T07:09:27.660Z,10.14
2019-05-01T07:10:30.242Z,10.17
2019-05-01T07:11:22.036Z,10.23
2019-05-01T07:12:23.820Z,10.27
2019-05-01T07:13:22.009Z,10.30
2019-05-01T07:14:20.992Z,10.34
2019-05-01T07:15:22.033Z,10.33
2019-05-01T07:16:21.968Z,10.36
2019-05-01T07:17:20.969Z,10.33
2019-05-01T07:18:24.161Z,10.32
2019-05-01T07:19:21.921Z,10.29
2019-05-01T07:20:20.950Z,10.26
2019-05-01T07:21:22.737Z,10.23
2019-05-01T07:22:21.912Z,10.17
2019-05-01T07:23:20.884Z,10.11
2019-05-01T07:24:23.996Z,10.08
2019-05-01T07:25:21.880Z,10.07
2019-05-01T07:26:22.829Z,10.05
2019-05-01T07:27:23.624Z,10.02
2019-05-01T07:28:20.834Z,9.94
2019-05-01T07:29:20.835Z,9.96
2019-05-01T07:30:20.966Z,9.97
2019-05-01T07:31:20.811Z,10.01
2019-05-01T07:32:20.824Z,10.04
2019-05-01T07:33:20.783Z,10.09
2019-05-01T07:34:21.669Z,10.15
2019-05-01T07:35:21.763Z,10.22
2019-05-01T07:36:20.744Z,10.23
2019-05-01T07:37:25.432Z,10.26
2019-05-01T07:38:21.734Z,10.30
2019-05-01T07:39:20.703Z,10.36
2019-05-01T07:40:28.795Z,10.41
2019-05-01T07:41:21.697Z,10.38
2019-05-01T07:42:20.672Z,10.25
2019-05-01T07:43:23.897Z,10.20
2019-05-01T07:44:20.672Z,10.15
2019-05-01T07:45:20.657Z,10.12
2019-05-01T07:46:20.642Z,10.11
2019-05-01T07:47:20.632Z,10.11
2019-05-01T07:48:20.626Z,10.14
2019-05-01T07:49:20.605Z,10.14
2019-05-01T07:50:23.870Z,10.12
2019-05-01T07:51:21.593Z,10.12
2019-05-01T07:52:20.562Z,10.11
2019-05-01T07:53:23.847Z,10.09
2019-05-01T07:54:21.546Z,10.14
2019-05-01T07:55:20.546Z,10.14
2019-05-01T07:56:22.862Z,10.17
2019-05-01T07:57:23.052Z,10.18
2019-05-01T07:58:20.516Z,10.18
2019-05-01T07:59:22.760Z,10.18
2019-05-01T08:00:21.486Z,10.18
2019-05-01T08:01:20.463Z,10.22
2019-05-01T08:02:20.456Z,10.27
2019-05-01T08:03:20.456Z,10.32
2019-05-01T08:04:35.316Z,10.32
2019-05-01T08:05:21.424Z,10.33
2019-05-01T08:06:21.458Z,10.33
2019-05-01T08:07:20.394Z,10.36
2019-05-01T08:08:20.397Z,10.33
2019-05-01T08:09:20.376Z,10.33
2019-05-01T08:10:21.056Z,10.34
2019-05-01T08:11:20.383Z,10.34
2019-05-01T08:12:23.908Z,10.36
2019-05-01T08:13:21.334Z,10.38
2019-05-01T08:14:20.335Z,10.41
2019-05-01T08:15:22.545Z,10.40
2019-05-01T08:16:21.297Z,10.36
2019-05-01T08:17:20.296Z,10.34
2019-05-01T08:18:24.094Z,10.34
2019-05-01T08:19:21.300Z,10.36
2019-05-01T08:20:20.345Z,10.40
2019-05-01T08:21:21.134Z,10.41
2019-05-01T08:22:21.258Z,10.45
2019-05-01T08:23:20.275Z,10.48
2019-05-01T08:24:22.990Z,10.53
2019-05-01T08:25:20.198Z,10.60
2019-05-01T08:26:20.196Z,10.67
2019-05-01T08:27:21.306Z,10.71
2019-05-01T08:28:20.176Z,10.73
2019-05-01T08:29:20.166Z,10.73
2019-05-01T08:30:20.159Z,10.70
2019-05-01T08:31:23.038Z,10.70
2019-05-01T08:32:21.128Z,10.70
2019-05-01T08:33:20.160Z,10.68
2019-05-01T08:34:20.626Z,10.56
2019-05-01T08:35:20.109Z,10.42
2019-05-01T08:36:20.156Z,10.36
2019-05-01T08:37:22.450Z,10.34
2019-05-01T08:38:20.068Z,10.38
2019-05-01T08:39:20.050Z,10.42
2019-05-01T08:40:20.478Z,10.51
2019-05-01T08:41:20.059Z,10.59
2019-05-01T08:42:20.021Z,10.63
2019-05-01T08:43:20.020Z,10.68
2019-05-01T08:44:19.988Z,10.76
2019-05-01T08:45:19.992Z,10.85
2019-05-01T08:46:19.980Z,10.92
2019-05-01T08:47:20.702Z,10.97
2019-05-01T08:48:20.961Z,11.03
2019-05-01T08:49:19.952Z,11.10
2019-05-01T08:50:24.592Z,11.18
2019-05-01T08:51:20.919Z,11.18
2019-05-01T08:52:20.000Z,11.11
2019-05-01T08:53:22.067Z,11.04
2019-05-01T08:54:19.901Z,11.03
2019-05-01T08:55:19.968Z,11.06
2019-05-01T08:56:21.860Z,11.04
2019-05-01T08:57:19.931Z,11.04
2019-05-01T08:58:19.851Z,11.07
2019-05-01T08:59:23.900Z,11.10
2019-05-01T09:00:20.818Z,11.17
2019-05-01T09:01:19.808Z,11.21
2019-05-01T09:02:19.823Z,11.24
2019-05-01T09:03:20.482Z,11.29
2019-05-01T09:04:19.792Z,11.32
2019-05-01T09:05:28.738Z,11.36
2019-05-01T09:06:20.763Z,11.40
2019-05-01T09:07:22.574Z,11.44
2019-05-01T09:08:19.800Z,11.43
2019-05-01T09:09:19.723Z,11.46
2019-05-01T09:10:21.597Z,11.47
2019-05-01T09:11:19.700Z,11.54
2019-05-01T09:12:19.713Z,11.64
2019-05-01T09:13:23.717Z,11.73
2019-05-01T09:14:20.673Z,11.85
2019-05-01T09:15:19.694Z,11.94
2019-05-01T09:16:23.478Z,12.01
2019-05-01T09:17:20.634Z,11.99
2019-05-01T09:18:19.623Z,12.01
2019-05-01T09:19:19.615Z,12.12
2019-05-01T09:20:19.605Z,12.19
2019-05-01T09:21:19.675Z,12.28
2019-05-01T09:22:19.573Z,12.39
2019-05-01T09:23:19.576Z,12.46
2019-05-01T09:24:23.161Z,12.52
2019-05-01T09:25:20.543Z,12.49
2019-05-01T09:26:19.555Z,12.46
2019-05-01T09:27:24.054Z,12.52
2019-05-01T09:28:20.520Z,12.65
2019-05-01T09:29:19.493Z,12.72
2019-05-01T09:30:21.716Z,12.83
2019-05-01T09:31:20.484Z,12.93
2019-05-01T09:32:19.476Z,13.01
2019-05-01T09:33:19.467Z,13.11
2019-05-01T09:34:21.050Z,13.26
2019-05-01T09:35:19.795Z,13.42
2019-05-01T09:36:19.907Z,13.48
2019-05-01T09:37:19.627Z,13.51
2019-05-01T09:38:19.476Z,13.38
2019-05-01T09:39:19.395Z,13.28
2019-05-01T09:40:19.396Z,13.29
2019-05-01T09:41:19.380Z,13.33
2019-05-01T09:42:23.677Z,13.30
2019-05-01T09:43:20.335Z,13.33
2019-05-01T09:44:19.336Z,13.28
2019-05-01T09:45:19.329Z,13.25
2019-05-01T09:46:19.409Z,13.23
2019-05-01T09:47:19.307Z,13.29
2019-05-01T09:48:19.290Z,13.28
2019-05-01T09:49:19.546Z,13.38
2019-05-01T09:50:19.361Z,13.46
2019-05-01T09:51:19.270Z,13.57
2019-05-01T09:52:23.320Z,13.66
2019-05-01T09:53:20.291Z,13.75
2019-05-01T09:54:19.233Z,13.85
2019-05-01T09:55:23.200Z,13.89
2019-05-01T09:56:20.279Z,13.96
2019-05-01T09:57:19.178Z,14.02
2019-05-01T09:58:19.189Z,13.99
2019-05-01T09:59:19.230Z,13.95
2019-05-01T10:00:19.159Z,14.03
2019-05-01T10:01:19.158Z,14.22
2019-05-01T10:02:19.130Z,14.51
2019-05-01T10:03:19.131Z,14.72
2019-05-01T10:04:19.134Z,14.86
2019-05-01T10:05:28.630Z,14.96
2019-05-01T10:06:20.171Z,14.98
2019-05-01T10:07:19.083Z,15.02
2019-05-01T10:08:19.091Z,14.99
2019-05-01T10:09:19.061Z,14.89
2019-05-01T10:10:19.054Z,14.70
2019-05-01T10:11:19.033Z,14.57
2019-05-01T10:12:19.100Z,14.46
2019-05-01T10:13:22.505Z,14.50
2019-05-01T10:14:20.019Z,14.58
2019-05-01T10:15:19.009Z,14.69
2019-05-01T10:16:18.986Z,14.75
2019-05-01T10:17:19.099Z,14.58
2019-05-01T10:18:18.964Z,14.52
2019-05-01T10:19:18.956Z,14.50
2019-05-01T10:20:18.948Z,14.32
2019-05-01T10:21:22.347Z,14.27
2019-05-01T10:22:20.007Z,14.35
2019-05-01T10:23:18.918Z,14.50
2019-05-01T10:24:18.907Z,14.61
2019-05-01T10:25:18.898Z,14.62
2019-05-01T10:26:23.502Z,14.55
2019-05-01T10:27:19.977Z,14.46
2019-05-01T10:28:18.856Z,14.50
2019-05-01T10:29:21.340Z,14.62
2019-05-01T10:30:19.826Z,14.89
2019-05-01T10:31:18.816Z,15.16
2019-05-01T10:32:21.700Z,15.36
2019-05-01T10:33:18.886Z,15.43
2019-05-01T10:34:18.799Z,15.35
2019-05-01T10:35:19.613Z,15.38
2019-05-01T10:36:20.595Z,15.43
2019-05-01T10:37:18.760Z,15.59
2019-05-01T10:38:18.840Z,15.74
2019-05-01T10:39:19.733Z,15.83
2019-05-01T10:40:18.722Z,15.89
2019-05-01T10:41:18.710Z,15.93
2019-05-01T10:42:18.811Z,16.09
2019-05-01T10:43:18.713Z,16.15
2019-05-01T10:44:18.774Z,16.27
2019-05-01T10:45:18.670Z,16.24
2019-05-01T10:46:18.660Z,16.24
2019-05-01T10:47:18.653Z,16.25
2019-05-01T10:48:18.644Z,16.30
2019-05-01T10:49:18.744Z,16.39
2019-05-01T10:50:18.633Z,16.43
2019-05-01T10:51:18.603Z,16.52
2019-05-01T10:52:18.602Z,16.50
2019-05-01T10:53:18.585Z,16.35
2019-05-01T10:54:18.583Z,16.15
2019-05-01T10:55:18.654Z,16.01
2019-05-01T10:56:18.554Z,16.01
2019-05-01T10:57:18.545Z,16.02
2019-05-01T10:58:20.247Z,16.00
2019-05-01T10:59:18.527Z,15.90
2019-05-01T11:00:18.598Z,15.90
2019-05-01T11:01:18.499Z,16.05
2019-05-01T11:02:18.498Z,16.23
2019-05-01T11:03:18.476Z,16.46
2019-05-01T11:04:18.476Z,16.67
2019-05-01T11:05:18.866Z,16.82
2019-05-01T11:06:18.556Z,16.91
2019-05-01T11:07:18.440Z,16.93
2019-05-01T11:08:18.429Z,16.91
2019-05-01T11:09:18.420Z,16.93
2019-05-01T11:10:18.398Z,16.91
2019-05-01T11:11:18.388Z,16.93
2019-05-01T11:12:18.470Z,17.00
2019-05-01T11:13:18.369Z,17.11
2019-05-01T11:14:18.359Z,17.22
2019-05-01T11:15:18.350Z,17.40
2019-05-01T11:16:18.341Z,17.46
2019-05-01T11:17:18.422Z,17.55
2019-05-01T11:18:18.394Z,17.66
2019-05-01T11:19:18.311Z,17.74
2019-05-01T11:20:18.300Z,17.78
2019-05-01T11:21:18.281Z,17.82
2019-05-01T11:22:18.271Z,17.90
2019-05-01T11:23:18.262Z,17.97
2019-05-01T11:24:18.335Z,18.07
2019-05-01T11:25:18.243Z,18.20
2019-05-01T11:26:18.234Z,18.25
2019-05-01T11:27:18.332Z,18.21
2019-05-01T11:28:18.225Z,17.95
2019-05-01T11:29:18.257Z,17.81
2019-05-01T11:30:18.196Z,17.74
2019-05-01T11:31:18.187Z,17.72
2019-05-01T11:32:18.196Z,17.72
2019-05-01T11:33:18.279Z,17.70
2019-05-01T11:34:18.156Z,17.68
2019-05-01T11:35:18.136Z,17.74
2019-05-01T11:36:18.140Z,17.86
2019-05-01T11:37:18.110Z,17.90
2019-05-01T11:38:18.117Z,17.79
2019-05-01T11:39:18.235Z,17.79
2019-05-01T11:40:18.102Z,17.86
2019-05-01T11:41:18.077Z,17.86
2019-05-01T11:42:18.067Z,17.82
2019-05-01T11:43:18.061Z,17.89
2019-05-01T11:44:18.051Z,17.95
2019-05-01T11:45:18.119Z,17.97
2019-05-01T11:46:18.029Z,18.02
2019-05-01T11:47:18.012Z,17.93
2019-05-01T11:48:17.991Z,17.89
2019-05-01T11:49:17.981Z,17.81
2019-05-01T11:50:18.034Z,17.74
2019-05-01T11:51:17.973Z,17.70
2019-05-01T11:52:17.964Z,17.55
2019-05-01T11:53:17.943Z,17.58
2019-05-01T11:54:17.938Z,17.64
2019-05-01T11:55:17.986Z,17.75
2019-05-01T11:56:17.916Z,17.79
2019-05-01T11:57:17.914Z,17.82
2019-05-01T11:58:17.901Z,17.82
2019-05-01T11:59:17.874Z,17.87
2019-05-01T12:00:17.865Z,17.92
2019-05-01T12:01:17.897Z,17.74
2019-05-01T12:02:17.855Z,17.66
2019-05-01T12:03:17.835Z,17.68
2019-05-01T12:04:17.849Z,17.70
2019-05-01T12:05:17.838Z,17.72
2019-05-01T12:06:22.972Z,17.86
2019-05-01T12:07:18.868Z,18.00
2019-05-01T12:08:17.846Z,18.08
2019-05-01T12:09:17.799Z,18.20
2019-05-01T12:10:17.780Z,18.18
2019-05-01T12:11:17.767Z,18.17
2019-05-01T12:12:17.738Z,18.10
2019-05-01T12:13:17.851Z,17.99
2019-05-01T12:14:17.729Z,18.02
2019-05-01T12:15:17.722Z,18.11
2019-05-01T12:16:17.722Z,18.20
2019-05-01T12:17:17.702Z,18.29
2019-05-01T12:18:17.693Z,18.44
2019-05-01T12:19:17.820Z,18.55
2019-05-01T12:20:17.681Z,18.66
2019-05-01T12:21:17.652Z,18.39
2019-05-01T12:22:17.654Z,18.12
2019-05-01T12:23:17.632Z,18.08
2019-05-01T12:24:17.627Z,18.11
2019-05-01T12:25:17.705Z,18.25
2019-05-01T12:26:17.604Z,18.36
2019-05-01T12:27:17.593Z,18.37
2019-05-01T12:28:17.586Z,18.42
2019-05-01T12:29:17.574Z,18.54
2019-05-01T12:30:17.635Z,18.70
2019-05-01T12:31:17.544Z,18.84
2019-05-01T12:32:17.537Z,18.95
2019-05-01T12:33:17.538Z,19.13
2019-05-01T12:34:17.527Z,19.28
2019-05-01T12:35:17.597Z,19.44
2019-05-01T12:36:17.500Z,19.32
2019-05-01T12:37:17.499Z,18.92
2019-05-01T12:38:17.478Z,18.76
2019-05-01T12:39:17.465Z,18.69
2019-05-01T12:40:17.540Z,18.75
2019-05-01T12:41:17.470Z,18.82
2019-05-01T12:42:17.440Z,18.82
2019-05-01T12:43:17.431Z,18.75
2019-05-01T12:44:17.419Z,18.63
2019-05-01T12:45:17.403Z,18.69
2019-05-01T12:46:17.503Z,18.69
2019-05-01T12:47:17.409Z,18.62
2019-05-01T12:48:17.394Z,18.62
2019-05-01T12:49:17.360Z,18.51
2019-05-01T12:50:17.436Z,18.47
2019-05-01T12:51:17.360Z,18.52
2019-05-01T12:52:17.441Z,18.66
2019-05-01T12:53:17.324Z,18.72
2019-05-01T12:54:17.312Z,18.82
2019-05-01T12:55:17.308Z,19.00
2019-05-01T12:56:17.299Z,19.16
2019-05-01T12:57:17.295Z,19.29
2019-05-01T12:58:17.364Z,19.37
2019-05-01T12:59:17.256Z,19.19
2019-05-01T13:00:17.257Z,19.08
2019-05-01T13:01:17.241Z,18.94
2019-05-01T13:02:17.247Z,18.95
2019-05-01T13:03:17.307Z,19.08
2019-05-01T13:04:17.237Z,19.21
2019-05-01T13:05:17.249Z,19.32